Cabimas, Venezuela
Current Conditions -  °F | °C
As of 9:00 PM on Wednesday 22 Oct 2014 (Local Time) from SKVP Reporting Station
Broken Clouds Broken Clouds  
Wind Chill: 29°   Ceiling: 20000
Heat Index: 32°   Visibility: 6mi
Dew Point: 22°   Wind: 0mph
Humidity: 66%   Direction: NA
Pressure: 29.9"   Gusts: NA
Location:  10.43°N, 71.45°W
Report Text: SKVP 230100Z 00000KT 9999 FEW020 BKN200 29/22 A2990
Loading
Personal Weather Stations






























Interactive Weather Map
Tropical Storm Tracking
New forecast layout! Learn more

10-Day Weather Forecast

Advertisements
Track Severe Weather on mobile